CheckWX is a tool to help pilots better visualize weather data.  It is not intended as a substitute for an official pre-flight weather briefing.

09:52:10 UTC

KESN METAR
Easton / Newnam Field Airport
Easton, Maryland, USA
Current

8 hours ago

KESN 310155Z 00000KT 10SM SKC 21/14 A2999
Observed
May-31 @ 01:55 UTC
Visibility
Flight Rules
VFR
Cloud Levels
  • Clear skies
Temperature
21°C / 70°F
Dewpoint
14°C / 57°F
Humidity
64%
Altimeter
29.99" Hg
Pressure
1015.62 hPa
Previous

9 hours ago

KESN 310055Z 00000KT 10SM SKC 22/12 A2998
Observed
May-31 @ 00:55 UTC
Visibility
Flight Rules
VFR
Cloud Levels
  • Clear skies
Temperature
22°C / 72°F
Dewpoint
12°C / 54°F
Humidity
53%
Altimeter
29.98" Hg
Pressure
1015.22 hPa
Previous

10 hours ago

KESN 302350Z 00000KT 10SM SKC 26/10 A2996
Observed
May-30 @ 23:50 UTC
Visibility
Flight Rules
VFR
Cloud Levels
  • Clear skies
Temperature
26°C / 79°F
Dewpoint
10°C / 50°F
Humidity
37%
Altimeter
29.96" Hg
Pressure
1014.52 hPa